createdAt,value
2022-10-25T00:02:59.531Z,83.31
2022-10-25T00:06:05.216Z,83.28
2022-10-25T00:09:11.346Z,83.26
2022-10-25T00:12:15.252Z,83.27
2022-10-25T00:15:21.012Z,83.49
2022-10-25T00:18:27.175Z,83.50
2022-10-25T00:21:31.188Z,83.57
2022-10-25T00:24:36.739Z,83.59
2022-10-25T00:27:42.175Z,83.63
2022-10-25T00:30:47.577Z,83.81
2022-10-25T00:33:53.086Z,83.88
2022-10-25T00:36:58.629Z,83.83
2022-10-25T00:40:04.478Z,83.91
2022-10-25T00:43:11.628Z,83.90
2022-10-25T00:46:24.057Z,84.11
2022-10-25T00:49:29.736Z,84.10
2022-10-25T00:52:40.407Z,84.01
2022-10-25T00:55:53.049Z,84.25
2022-10-25T00:59:03.588Z,84.19
2022-10-25T01:02:09.578Z,84.22
2022-10-25T01:05:13.904Z,84.22
2022-10-25T01:08:21.466Z,84.37
2022-10-25T01:11:26.913Z,84.40
2022-10-25T01:14:36.397Z,84.37
2022-10-25T01:17:51.853Z,84.57
2022-10-25T01:21:24.112Z,84.55
2022-10-25T01:25:04.357Z,84.54
2022-10-25T01:28:13.817Z,84.57
2022-10-25T01:31:28.375Z,84.58
2022-10-25T01:34:42.323Z,84.56
2022-10-25T01:38:04.506Z,84.43
2022-10-25T01:41:21.070Z,84.59
2022-10-25T01:44:45.105Z,84.78
2022-10-25T01:47:55.516Z,84.76
2022-10-25T01:51:11.018Z,84.80
2022-10-25T01:54:25.090Z,84.79
2022-10-25T01:57:54.558Z,84.77
2022-10-25T02:01:11.921Z,84.91
2022-10-25T02:04:25.831Z,84.91
2022-10-25T02:07:38.560Z,85.00
2022-10-25T02:10:49.379Z,84.96
2022-10-25T02:14:08.283Z,85.01
2022-10-25T02:17:19.916Z,85.18
2022-10-25T02:20:29.556Z,85.27
2022-10-25T02:23:38.039Z,85.18
2022-10-25T02:26:45.127Z,85.16
2022-10-25T02:29:51.713Z,85.36
2022-10-25T02:32:57.248Z,85.51
2022-10-25T02:36:13.991Z,85.49
2022-10-25T02:39:21.485Z,85.65
2022-10-25T02:42:27.003Z,85.71
2022-10-25T02:45:32.406Z,85.69
2022-10-25T02:48:38.466Z,85.69
2022-10-25T02:51:44.003Z,85.76
2022-10-25T02:54:49.460Z,85.77
2022-10-25T02:57:54.915Z,85.75
2022-10-25T03:01:01.323Z,85.87
2022-10-25T03:04:07.114Z,85.79
2022-10-25T03:07:12.627Z,85.90
2022-10-25T03:10:18.274Z,86.00
2022-10-25T03:13:23.828Z,85.99
2022-10-25T03:16:29.276Z,86.34
2022-10-25T03:19:34.726Z,86.28
2022-10-25T03:22:40.272Z,86.26
2022-10-25T03:25:46.161Z,86.22
2022-10-25T03:28:52.772Z,86.17
2022-10-25T03:31:58.176Z,86.08
2022-10-25T03:35:03.700Z,86.09
2022-10-25T03:38:09.400Z,86.09
2022-10-25T03:41:14.900Z,86.25
2022-10-25T03:44:20.374Z,86.33
2022-10-25T03:47:26.112Z,86.34
2022-10-25T03:50:31.644Z,86.40
2022-10-25T03:53:37.099Z,86.31
2022-10-25T03:56:42.608Z,86.25
2022-10-25T03:59:48.022Z,86.30
2022-10-25T04:03:01.820Z,86.41
2022-10-25T04:06:08.644Z,86.29
2022-10-25T04:09:14.267Z,86.37
2022-10-25T04:12:19.737Z,86.47
2022-10-25T04:15:25.710Z,86.57
2022-10-25T04:18:31.222Z,86.63
2022-10-25T04:21:36.669Z,86.59
2022-10-25T04:24:42.320Z,86.67
2022-10-25T04:27:47.991Z,86.62
2022-10-25T04:30:54.144Z,86.67
2022-10-25T04:33:59.790Z,86.69
2022-10-25T04:37:05.339Z,86.72
2022-10-25T04:40:13.177Z,86.68
2022-10-25T04:43:18.690Z,86.65
2022-10-25T04:46:24.649Z,86.56
2022-10-25T04:49:30.095Z,86.62
2022-10-25T04:52:35.697Z,86.75
2022-10-25T04:55:41.157Z,86.72
2022-10-25T04:58:46.851Z,86.85
2022-10-25T05:05:02.655Z,86.92
2022-10-25T05:08:08.397Z,86.74
2022-10-25T05:11:15.355Z,86.81
2022-10-25T05:14:21.045Z,86.90
2022-10-25T05:17:26.495Z,86.87
2022-10-25T05:20:32.043Z,86.93
2022-10-25T05:23:37.721Z,87.00
2022-10-25T05:26:43.244Z,86.94
2022-10-25T05:29:49.348Z,86.91
2022-10-25T05:32:53.318Z,86.81
2022-10-25T05:35:59.789Z,86.87
2022-10-25T05:39:05.237Z,87.07
2022-10-25T05:42:10.670Z,87.12
2022-10-25T05:45:16.557Z,87.00
2022-10-25T05:48:22.089Z,86.98
2022-10-25T05:51:37.094Z,87.03
2022-10-25T05:54:42.918Z,86.99
2022-10-25T05:57:53.176Z,87.08
2022-10-25T06:01:02.024Z,87.28
2022-10-25T06:04:08.829Z,87.45
2022-10-25T06:07:14.330Z,87.53
2022-10-25T06:10:19.884Z,87.48
2022-10-25T06:13:25.327Z,87.57
2022-10-25T06:16:31.159Z,87.36
2022-10-25T06:19:36.737Z,87.34
2022-10-25T06:22:42.283Z,87.44
2022-10-25T06:25:47.832Z,87.41
2022-10-25T06:28:57.008Z,87.65
2022-10-25T06:32:02.516Z,87.87
2022-10-25T06:35:09.632Z,87.88
2022-10-25T06:38:15.459Z,87.96
2022-10-25T06:41:22.466Z,87.98
2022-10-25T06:44:27.988Z,87.99
2022-10-25T06:47:33.414Z,88.00
2022-10-25T06:50:38.883Z,88.14
2022-10-25T06:53:44.551Z,88.31
2022-10-25T06:56:50.143Z,88.29
2022-10-25T06:59:55.757Z,88.21
2022-10-25T07:03:01.998Z,88.29
2022-10-25T07:06:09.664Z,88.29
2022-10-25T07:09:15.790Z,88.35
2022-10-25T07:12:19.777Z,88.21
2022-10-25T07:15:25.221Z,88.24
2022-10-25T07:18:31.417Z,88.29
2022-10-25T07:21:35.505Z,88.40
2022-10-25T07:24:40.955Z,88.37
2022-10-25T07:27:46.690Z,88.50
2022-10-25T07:30:52.599Z,88.59
2022-10-25T07:34:01.045Z,88.55
2022-10-25T07:37:07.245Z,88.67
2022-10-25T07:40:13.938Z,88.87
2022-10-25T07:43:19.376Z,88.93
2022-10-25T07:46:24.919Z,88.76
2022-10-25T07:49:30.469Z,88.68
2022-10-25T07:52:35.921Z,88.91
2022-10-25T07:55:41.567Z,89.33
2022-10-25T07:58:47.322Z,89.40
2022-10-25T08:01:52.941Z,89.42
2022-10-25T08:04:58.624Z,89.48
2022-10-25T08:08:05.421Z,89.41
2022-10-25T08:11:10.953Z,89.57
2022-10-25T08:14:16.525Z,89.60
2022-10-25T08:17:22.051Z,89.59
2022-10-25T08:20:49.130Z,89.55
2022-10-25T08:23:53.530Z,89.66
2022-10-25T08:26:58.962Z,89.64
2022-10-25T08:30:04.732Z,89.57
2022-10-25T08:33:11.792Z,89.61
2022-10-25T08:36:17.492Z,89.52
2022-10-25T08:39:23.015Z,89.41
2022-10-25T08:42:36.348Z,89.48
2022-10-25T08:45:52.689Z,89.28
2022-10-25T08:49:07.934Z,89.42
2022-10-25T08:52:24.331Z,89.53
2022-10-25T08:55:33.741Z,89.57
2022-10-25T08:58:46.388Z,89.72
2022-10-25T09:01:57.250Z,89.81
2022-10-25T09:05:03.014Z,89.85
2022-10-25T09:08:24.436Z,90.18
2022-10-25T09:11:49.545Z,90.02
2022-10-25T09:15:02.997Z,90.11
2022-10-25T09:18:17.576Z,89.80
2022-10-25T09:21:29.977Z,89.78
2022-10-25T09:24:50.866Z,89.46
2022-10-25T09:28:03.800Z,89.45
2022-10-25T09:31:16.006Z,89.40
2022-10-25T09:34:23.607Z,89.01
2022-10-25T09:37:34.504Z,89.08
2022-10-25T09:40:48.030Z,89.06
2022-10-25T09:43:59.315Z,88.97
2022-10-25T09:47:16.016Z,89.06
2022-10-25T09:50:28.957Z,88.85
2022-10-25T09:53:40.321Z,89.04
2022-10-25T09:56:46.054Z,88.81
2022-10-25T09:59:52.639Z,88.61
2022-10-25T10:02:58.468Z,88.85
2022-10-25T10:06:04.441Z,88.81
2022-10-25T10:09:13.205Z,88.78
2022-10-25T10:12:24.553Z,88.46
2022-10-25T10:15:32.666Z,88.19
2022-10-25T10:18:40.605Z,88.14
2022-10-25T10:21:48.254Z,87.86
2022-10-25T10:25:02.365Z,87.43
2022-10-25T10:28:15.285Z,87.25
2022-10-25T10:31:21.302Z,87.23
2022-10-25T10:34:26.950Z,86.98
2022-10-25T10:37:31.596Z,86.80
2022-10-25T10:40:37.232Z,86.91
2022-10-25T10:43:43.496Z,87.08
2022-10-25T10:46:49.476Z,87.05
2022-10-25T10:49:53.468Z,87.06
2022-10-25T10:53:03.116Z,87.18
2022-10-25T10:56:09.885Z,87.30
2022-10-25T10:59:30.790Z,87.12
2022-10-25T11:02:41.347Z,87.15
2022-10-25T11:05:56.049Z,87.31
2022-10-25T11:09:17.049Z,87.35
2022-10-25T11:12:22.557Z,87.39
2022-10-25T11:15:30.128Z,87.35
2022-10-25T11:18:51.221Z,87.18
2022-10-25T11:22:18.565Z,86.81
2022-10-25T11:25:34.353Z,87.16
2022-10-25T11:28:45.433Z,87.09
2022-10-25T11:31:59.380Z,86.82
2022-10-25T11:35:16.818Z,86.47
2022-10-25T11:38:34.416Z,86.61
2022-10-25T11:41:48.182Z,86.56
2022-10-25T11:45:14.904Z,86.46
2022-10-25T11:48:49.195Z,86.66
2022-10-25T11:52:09.363Z,86.44
2022-10-25T11:55:28.511Z,86.28
2022-10-25T11:58:42.364Z,86.44
2022-10-25T12:02:08.999Z,86.39
2022-10-25T12:05:26.745Z,86.48
2022-10-25T12:08:47.072Z,86.32
2022-10-25T12:11:56.984Z,86.75
2022-10-25T12:15:04.196Z,86.43
2022-10-25T12:18:15.498Z,86.33
2022-10-25T12:21:27.693Z,86.22
2022-10-25T12:24:40.610Z,86.02
2022-10-25T12:27:55.795Z,85.84
2022-10-25T12:31:08.299Z,86.09
2022-10-25T12:34:20.806Z,86.22
2022-10-25T12:37:34.318Z,86.23
2022-10-25T12:40:45.280Z,86.21
2022-10-25T12:44:06.887Z,85.97
2022-10-25T12:47:40.779Z,85.68
2022-10-25T12:51:15.338Z,85.45
2022-10-25T12:54:40.473Z,85.39
2022-10-25T12:57:56.306Z,85.08
2022-10-25T13:01:22.892Z,84.68
2022-10-25T13:04:51.699Z,84.66
2022-10-25T13:08:01.684Z,84.66
2022-10-25T13:11:09.712Z,84.40
2022-10-25T13:14:27.703Z,84.28
2022-10-25T13:18:03.989Z,84.03
2022-10-25T13:21:11.582Z,83.84
2022-10-25T13:24:40.505Z,83.45
2022-10-25T13:28:32.777Z,82.98
2022-10-25T13:32:10.245Z,82.87
2022-10-25T13:35:50.987Z,82.82
2022-10-25T13:39:07.074Z,82.50
2022-10-25T13:42:26.184Z,82.05
2022-10-25T13:45:39.748Z,81.64
2022-10-25T13:48:45.949Z,81.26
2022-10-25T13:51:55.244Z,81.14
2022-10-25T13:55:02.788Z,81.06
2022-10-25T13:58:41.552Z,80.68
2022-10-25T14:01:59.287Z,80.61
2022-10-25T14:05:05.089Z,80.68
2022-10-25T14:08:23.041Z,80.15
2022-10-25T14:11:37.626Z,80.11
2022-10-25T14:14:54.211Z,80.02
2022-10-25T14:18:06.342Z,79.70
2022-10-25T14:21:14.174Z,79.82
2022-10-25T14:24:20.738Z,79.70
2022-10-25T14:27:35.660Z,79.74
2022-10-25T14:30:45.412Z,79.56
2022-10-25T14:33:56.192Z,79.33
2022-10-25T14:37:01.832Z,79.19
2022-10-25T14:40:20.960Z,79.12
2022-10-25T14:43:29.629Z,78.83
2022-10-25T14:46:35.070Z,78.87
2022-10-25T14:49:40.619Z,78.70
2022-10-25T14:52:49.200Z,78.68
2022-10-25T14:55:57.405Z,78.46
2022-10-25T14:59:04.421Z,78.49
2022-10-25T15:02:20.122Z,78.25
2022-10-25T15:05:24.956Z,78.28
2022-10-25T15:08:30.886Z,78.21
2022-10-25T15:11:35.040Z,77.95
2022-10-25T15:14:41.729Z,77.85
2022-10-25T15:17:54.120Z,77.84
2022-10-25T15:21:09.247Z,77.73
2022-10-25T15:24:21.817Z,77.80
2022-10-25T15:27:35.790Z,77.80
2022-10-25T15:30:43.793Z,77.89
2022-10-25T15:33:49.613Z,77.92
2022-10-25T15:36:55.471Z,77.98
2022-10-25T15:40:01.248Z,77.86
2022-10-25T15:43:06.774Z,77.86
2022-10-25T15:46:23.629Z,78.08
2022-10-25T15:49:29.137Z,78.12
2022-10-25T15:52:35.099Z,78.07
2022-10-25T15:55:39.007Z,78.14
2022-10-25T15:58:44.560Z,78.13
2022-10-25T16:01:53.373Z,78.12
2022-10-25T16:04:58.933Z,78.29
2022-10-25T16:08:04.704Z,78.31
2022-10-25T16:11:16.343Z,78.32
2022-10-25T16:14:25.353Z,78.31
2022-10-25T16:17:30.858Z,78.52
2022-10-25T16:20:36.650Z,78.66
2022-10-25T16:23:42.163Z,78.80
2022-10-25T16:26:50.170Z,78.68
2022-10-25T16:29:55.621Z,78.83
2022-10-25T16:33:01.064Z,78.73
2022-10-25T16:36:07.846Z,78.74
2022-10-25T16:39:14.269Z,78.80
2022-10-25T16:42:31.276Z,78.90
2022-10-25T16:45:38.653Z,78.93
2022-10-25T16:48:44.086Z,78.92
2022-10-25T16:51:51.714Z,78.86
2022-10-25T16:54:57.133Z,78.76
2022-10-25T16:58:03.622Z,78.57
2022-10-25T17:01:19.839Z,78.61
2022-10-25T17:04:26.439Z,78.55
2022-10-25T17:07:32.269Z,78.49
2022-10-25T17:10:42.461Z,78.52
2022-10-25T17:13:50.788Z,78.62
2022-10-25T17:17:00.787Z,78.67
2022-10-25T17:20:10.872Z,78.64
2022-10-25T17:23:16.319Z,78.64
2022-10-25T17:26:21.883Z,78.81
2022-10-25T17:29:27.751Z,78.76
2022-10-25T17:32:33.209Z,78.72
2022-10-25T17:35:43.394Z,78.63
2022-10-25T17:38:50.792Z,78.83
2022-10-25T17:41:56.505Z,78.89
2022-10-25T17:45:01.936Z,78.80
2022-10-25T17:48:08.217Z,78.97
2022-10-25T17:51:15.012Z,78.97
2022-10-25T17:54:20.485Z,78.91
2022-10-25T17:57:26.095Z,79.06
2022-10-25T18:00:31.547Z,79.00
2022-10-25T18:03:38.056Z,79.01
2022-10-25T18:06:43.561Z,79.09
2022-10-25T18:09:49.008Z,79.04
2022-10-25T18:12:54.477Z,78.97
2022-10-25T18:19:16.256Z,79.09
2022-10-25T18:22:21.768Z,79.33
2022-10-25T18:25:27.304Z,79.22
2022-10-25T18:28:35.237Z,79.15
2022-10-25T18:31:40.759Z,79.14
2022-10-25T18:34:46.309Z,79.09
2022-10-25T18:37:51.856Z,78.89
2022-10-25T18:40:57.653Z,78.89
2022-10-25T18:44:03.678Z,78.97
2022-10-25T18:47:09.326Z,78.92
2022-10-25T18:50:15.078Z,78.88
2022-10-25T18:53:20.857Z,79.02
2022-10-25T18:56:27.268Z,79.06
2022-10-25T18:59:33.027Z,79.02
2022-10-25T19:02:38.489Z,78.97
2022-10-25T19:05:44.818Z,78.93
2022-10-25T19:08:49.504Z,78.89
2022-10-25T19:11:54.949Z,78.83
2022-10-25T19:15:00.500Z,79.06
2022-10-25T19:18:06.035Z,78.98
2022-10-25T19:21:13.477Z,79.10
2022-10-25T19:24:18.888Z,79.12
2022-10-25T19:27:24.540Z,79.07
2022-10-25T19:30:32.223Z,79.12
2022-10-25T19:33:40.105Z,79.18
2022-10-25T19:36:45.592Z,79.23
2022-10-25T19:39:53.327Z,79.21
2022-10-25T19:43:01.196Z,78.99
2022-10-25T19:46:08.225Z,78.92
2022-10-25T19:49:14.101Z,78.96
2022-10-25T19:52:20.046Z,79.17
2022-10-25T19:55:25.547Z,79.06
2022-10-25T19:58:31.196Z,79.14
2022-10-25T20:01:36.837Z,78.93
2022-10-25T20:04:42.398Z,79.06
2022-10-25T20:07:48.363Z,79.02
2022-10-25T20:10:52.576Z,79.11
2022-10-25T20:13:59.288Z,79.04
2022-10-25T20:17:05.006Z,79.25
2022-10-25T20:20:12.597Z,79.27
2022-10-25T20:23:18.562Z,79.11
2022-10-25T20:26:25.786Z,79.13
2022-10-25T20:29:31.301Z,79.05
2022-10-25T20:32:36.838Z,79.17
2022-10-25T20:35:44.549Z,79.14
2022-10-25T20:38:50.266Z,79.22
2022-10-25T20:41:55.754Z,79.12
2022-10-25T20:45:01.300Z,79.20
2022-10-25T20:48:07.389Z,78.96
2022-10-25T20:51:15.427Z,79.31
2022-10-25T20:54:21.327Z,79.29
2022-10-25T20:57:26.778Z,79.29
2022-10-25T21:00:33.245Z,79.29
2022-10-25T21:03:39.270Z,79.47
2022-10-25T21:06:44.692Z,79.39
2022-10-25T21:09:50.202Z,79.45
2022-10-25T21:12:55.650Z,79.40
2022-10-25T21:16:05.294Z,79.67
2022-10-25T21:19:10.992Z,79.75
2022-10-25T21:22:16.495Z,79.63
2022-10-25T21:25:21.942Z,79.60
2022-10-25T21:28:28.004Z,79.64
2022-10-25T21:31:33.656Z,79.88
2022-10-25T21:34:39.205Z,79.80
2022-10-25T21:37:48.277Z,79.89
2022-10-25T21:40:54.913Z,79.93
2022-10-25T21:44:00.591Z,79.79
2022-10-25T21:47:06.321Z,79.80
2022-10-25T21:50:12.734Z,80.00
2022-10-25T21:53:18.646Z,80.00
2022-10-25T21:56:30.709Z,79.91
2022-10-25T21:59:37.220Z,79.86
2022-10-25T22:05:53.017Z,79.95
2022-10-25T22:08:58.889Z,80.01
2022-10-25T22:12:05.169Z,79.99
2022-10-25T22:15:09.721Z,80.03
2022-10-25T22:18:15.150Z,80.16
2022-10-25T22:21:21.086Z,80.21
2022-10-25T22:24:26.621Z,80.11
2022-10-25T22:27:32.182Z,80.15
2022-10-25T22:30:37.735Z,80.21
2022-10-25T22:33:44.126Z,80.08
2022-10-25T22:36:49.652Z,80.14
2022-10-25T22:39:55.100Z,80.30
2022-10-25T22:43:03.350Z,80.29
2022-10-25T22:46:11.598Z,80.23
2022-10-25T22:49:19.044Z,80.26
2022-10-25T22:52:24.567Z,80.21
2022-10-25T22:55:30.013Z,80.28
2022-10-25T22:58:38.256Z,80.24
2022-10-25T23:01:43.776Z,80.29
2022-10-25T23:04:49.208Z,80.21
2022-10-25T23:07:55.693Z,80.20
2022-10-25T23:11:03.125Z,80.23
2022-10-25T23:14:13.466Z,80.38
2022-10-25T23:17:22.088Z,80.58
2022-10-25T23:20:27.485Z,80.54
2022-10-25T23:23:38.834Z,80.57
2022-10-25T23:26:44.560Z,80.57
2022-10-25T23:29:49.955Z,80.61
2022-10-25T23:32:55.450Z,80.52
2022-10-25T23:36:05.357Z,80.75
2022-10-25T23:39:11.058Z,80.77
2022-10-25T23:42:16.604Z,80.85
2022-10-25T23:45:22.050Z,81.02
2022-10-25T23:48:28.173Z,80.89
2022-10-25T23:51:33.661Z,80.94
2022-10-25T23:54:39.073Z,81.01
2022-10-25T23:57:44.556Z,81.00
